createdAt,value
2018-10-18T00:00:29.411Z,32.83
2018-10-18T00:02:58.863Z,33.53
2018-10-18T00:05:27.822Z,33.70
2018-10-18T00:07:56.714Z,33.03
2018-10-18T00:10:25.546Z,30.60
2018-10-18T00:12:54.483Z,31.77
2018-10-18T00:15:23.303Z,30.97
2018-10-18T00:17:52.131Z,31.30
2018-10-18T00:20:20.960Z,30.60
2018-10-18T00:22:49.799Z,33.17
2018-10-18T00:25:18.647Z,32.83
2018-10-18T00:27:47.455Z,33.57
2018-10-18T00:30:16.348Z,34.63
2018-10-18T00:32:45.178Z,33.10
2018-10-18T00:35:13.961Z,34.50
2018-10-18T00:37:43.119Z,36.87
2018-10-18T00:40:12.531Z,35.40
2018-10-18T00:42:41.906Z,34.70
2018-10-18T00:45:10.766Z,36.30
2018-10-18T00:47:39.645Z,35.87
2018-10-18T00:50:10.110Z,35.80
2018-10-18T00:52:38.950Z,36.30
2018-10-18T00:55:09.431Z,35.30
2018-10-18T00:57:38.627Z,36.27
2018-10-18T01:00:09.346Z,34.27
2018-10-18T01:02:38.528Z,36.63
2018-10-18T01:05:07.458Z,35.53
2018-10-18T01:07:36.246Z,36.60
2018-10-18T01:10:05.162Z,36.23
2018-10-18T01:12:34.030Z,35.60
2018-10-18T01:15:02.803Z,35.50
2018-10-18T01:17:31.610Z,34.10
2018-10-18T01:20:00.455Z,35.83
2018-10-18T01:22:29.329Z,35.73
2018-10-18T01:24:58.153Z,37.50
2018-10-18T01:27:26.972Z,35.63
2018-10-18T01:29:55.787Z,40.17
2018-10-18T01:32:24.691Z,37.43
2018-10-18T01:34:53.483Z,38.43
2018-10-18T01:37:22.295Z,39.97
2018-10-18T01:39:51.151Z,37.93
2018-10-18T01:42:20.119Z,37.80
2018-10-18T01:44:48.895Z,40.20
2018-10-18T01:47:17.705Z,37.27
2018-10-18T01:49:46.498Z,37.60
2018-10-18T01:52:15.552Z,37.00
2018-10-18T01:54:44.342Z,37.87
2018-10-18T01:57:13.148Z,35.60
2018-10-18T01:59:41.978Z,36.13
2018-10-18T02:02:10.995Z,36.00
2018-10-18T02:04:39.775Z,39.43
2018-10-18T02:07:08.594Z,38.57
2018-10-18T02:09:37.412Z,36.07
2018-10-18T02:12:06.714Z,35.63
2018-10-18T02:14:35.419Z,34.00
2018-10-18T02:17:04.391Z,34.13
2018-10-18T02:19:33.187Z,34.90
2018-10-18T02:22:02.029Z,31.80
2018-10-18T02:24:30.846Z,32.30
2018-10-18T02:26:59.709Z,35.70
2018-10-18T02:29:28.517Z,32.60
2018-10-18T02:31:57.355Z,33.47
2018-10-18T02:34:26.163Z,31.83
2018-10-18T02:36:54.972Z,31.70
2018-10-18T02:39:23.783Z,30.30
2018-10-18T02:41:53.084Z,32.00
2018-10-18T02:44:21.876Z,32.03
2018-10-18T02:46:50.643Z,28.83
2018-10-18T02:49:19.422Z,30.00
2018-10-18T02:51:48.302Z,31.33
2018-10-18T02:54:17.230Z,28.77
2018-10-18T02:56:45.923Z,30.23
2018-10-18T02:59:16.310Z,27.77
2018-10-18T03:01:45.191Z,25.83
2018-10-18T03:04:14.011Z,27.10
2018-10-18T03:06:42.807Z,26.97
2018-10-18T03:09:12.286Z,28.07
2018-10-18T03:11:41.511Z,25.60
2018-10-18T03:14:10.311Z,26.63
2018-10-18T03:16:39.103Z,26.53
2018-10-18T03:19:07.878Z,28.50
2018-10-18T03:21:36.700Z,27.50
2018-10-18T03:24:05.780Z,25.63
2018-10-18T03:26:34.523Z,27.00
2018-10-18T03:29:03.343Z,24.97
2018-10-18T03:31:32.173Z,26.40
2018-10-18T03:34:01.070Z,24.53
2018-10-18T03:36:29.928Z,23.80
2018-10-18T03:38:58.751Z,23.90
2018-10-18T03:41:27.583Z,24.43
2018-10-18T03:43:56.398Z,25.97
2018-10-18T03:46:25.242Z,26.93
2018-10-18T03:48:54.046Z,27.67
2018-10-18T03:51:22.854Z,25.30
2018-10-18T03:53:51.754Z,25.50
2018-10-18T03:56:21.427Z,24.37
2018-10-18T03:58:50.244Z,24.40
2018-10-18T04:01:19.094Z,24.80
2018-10-18T04:03:47.981Z,23.53
2018-10-18T04:06:17.072Z,25.37
2018-10-18T04:08:46.098Z,24.63
2018-10-18T04:11:14.954Z,24.93
2018-10-18T04:13:43.815Z,25.40
2018-10-18T04:16:12.678Z,22.17
2018-10-18T04:18:41.503Z,23.23
2018-10-18T04:21:10.335Z,23.33
2018-10-18T04:23:39.191Z,22.90
2018-10-18T04:26:08.003Z,21.40
2018-10-18T04:28:36.862Z,22.40
2018-10-18T04:31:05.715Z,24.70
2018-10-18T04:33:34.632Z,22.00
2018-10-18T04:36:03.464Z,21.63
2018-10-18T04:38:33.265Z,22.50
2018-10-18T04:41:02.152Z,22.27
2018-10-18T04:43:31.006Z,24.27
2018-10-18T04:45:59.912Z,31.50
2018-10-18T04:48:28.746Z,27.80
2018-10-18T04:50:57.764Z,27.37
2018-10-18T04:53:26.684Z,23.93
2018-10-18T04:55:55.467Z,23.80
2018-10-18T04:58:24.283Z,23.70
2018-10-18T05:00:53.107Z,21.57
2018-10-18T05:03:21.963Z,22.37
2018-10-18T05:05:53.631Z,21.57
2018-10-18T05:08:23.559Z,21.30
2018-10-18T05:10:52.642Z,20.87
2018-10-18T05:13:21.583Z,21.50
2018-10-18T05:15:50.475Z,23.90
2018-10-18T05:18:19.715Z,23.20
2018-10-18T05:20:48.580Z,20.30
2018-10-18T05:23:17.477Z,21.17
2018-10-18T05:25:47.007Z,21.17
2018-10-18T05:28:15.871Z,19.87
2018-10-18T05:30:44.718Z,21.03
2018-10-18T05:33:13.782Z,18.00
2018-10-18T05:35:42.776Z,18.60
2018-10-18T05:38:11.664Z,21.20
2018-10-18T05:40:40.564Z,19.50
2018-10-18T05:43:09.497Z,18.10
2018-10-18T05:45:38.234Z,18.50
2018-10-18T05:48:07.167Z,18.27
2018-10-18T05:50:36.047Z,19.33
2018-10-18T05:53:05.262Z,20.00
2018-10-18T05:55:34.127Z,19.83
2018-10-18T05:58:03.060Z,20.80
2018-10-18T06:00:31.991Z,20.10
2018-10-18T06:03:00.927Z,20.57
2018-10-18T06:05:30.179Z,20.70
2018-10-18T06:07:59.170Z,19.20
2018-10-18T06:10:45.208Z,20.43
2018-10-18T06:13:14.288Z,20.13
2018-10-18T06:15:43.207Z,21.23
2018-10-18T06:18:12.151Z,20.43
2018-10-18T06:20:41.066Z,22.20
2018-10-18T06:23:10.851Z,20.40
2018-10-18T06:25:39.835Z,20.87
2018-10-18T06:28:08.758Z,21.00
2018-10-18T06:30:37.703Z,20.90
2018-10-18T06:33:06.728Z,22.17
2018-10-18T06:35:35.595Z,22.00
2018-10-18T06:38:04.563Z,21.03
2018-10-18T06:40:33.474Z,20.17
2018-10-18T06:43:02.479Z,20.27
2018-10-18T06:45:31.380Z,17.80
2018-10-18T06:48:00.281Z,19.90
2018-10-18T06:50:29.107Z,20.60
2018-10-18T06:52:58.091Z,19.93
2018-10-18T06:55:26.963Z,21.00
2018-10-18T06:57:55.858Z,20.10
2018-10-18T07:00:31.971Z,22.43
2018-10-18T07:03:00.849Z,21.03
2018-10-18T07:05:29.755Z,21.63
2018-10-18T07:07:58.631Z,21.80
2018-10-18T07:10:27.621Z,23.03
2018-10-18T07:12:56.661Z,21.43
2018-10-18T07:15:25.575Z,20.87
2018-10-18T07:17:54.488Z,21.87
2018-10-18T07:20:23.404Z,20.73
2018-10-18T07:22:52.388Z,21.73
2018-10-18T07:25:21.318Z,21.70
2018-10-18T07:27:50.203Z,20.63
2018-10-18T07:30:19.166Z,21.17
2018-10-18T07:32:48.150Z,22.90
2018-10-18T07:35:17.024Z,22.30
2018-10-18T07:37:45.881Z,23.17
2018-10-18T07:40:15.603Z,24.20
2018-10-18T07:42:44.689Z,21.83
2018-10-18T07:45:14.199Z,23.10
2018-10-18T07:47:43.795Z,23.77
2018-10-18T07:50:12.895Z,22.37
2018-10-18T07:52:41.801Z,23.80
2018-10-18T07:55:10.958Z,24.83
2018-10-18T07:57:51.915Z,25.33
2018-10-18T08:00:23.102Z,24.40
2018-10-18T08:02:55.202Z,23.90
2018-10-18T08:05:24.103Z,27.40
2018-10-18T08:07:52.966Z,23.17
2018-10-18T08:10:21.843Z,24.17
2018-10-18T08:12:50.755Z,22.47
2018-10-18T08:15:19.661Z,25.70
2018-10-18T08:17:48.562Z,25.70
2018-10-18T08:20:17.439Z,22.57
2018-10-18T08:22:46.322Z,27.20
2018-10-18T08:25:15.250Z,22.63
2018-10-18T08:27:44.127Z,24.20
2018-10-18T08:30:13.570Z,25.70
2018-10-18T08:32:42.495Z,24.30
2018-10-18T08:35:12.081Z,25.30
2018-10-18T08:37:41.124Z,26.50
2018-10-18T08:40:09.969Z,24.43
2018-10-18T08:42:38.883Z,23.90
2018-10-18T08:45:09.283Z,22.70
2018-10-18T08:47:38.260Z,24.60
2018-10-18T08:50:08.595Z,24.83
2018-10-18T08:52:37.761Z,22.90
2018-10-18T08:55:09.406Z,26.43
2018-10-18T08:57:38.251Z,27.00
2018-10-18T09:00:08.554Z,25.60
2018-10-18T09:02:38.279Z,24.77
2018-10-18T09:05:07.567Z,26.70
2018-10-18T09:07:36.987Z,28.00
2018-10-18T09:10:06.778Z,25.73
2018-10-18T09:12:36.127Z,28.00
2018-10-18T09:15:06.758Z,25.73
2018-10-18T09:17:35.908Z,25.73
2018-10-18T09:20:05.416Z,30.07
2018-10-18T09:22:34.423Z,28.47
2018-10-18T09:25:03.425Z,27.03
2018-10-18T09:27:32.343Z,26.73
2018-10-18T09:30:01.273Z,25.90
2018-10-18T09:32:30.679Z,28.63
2018-10-18T09:34:59.581Z,29.00
2018-10-18T09:37:28.462Z,27.90
2018-10-18T09:39:57.361Z,29.23
2018-10-18T09:42:26.254Z,28.67
2018-10-18T09:44:55.142Z,30.33
2018-10-18T09:47:24.103Z,31.80
2018-10-18T09:49:52.988Z,31.70
2018-10-18T09:52:21.980Z,32.77
2018-10-18T09:54:50.871Z,32.27
2018-10-18T09:57:19.792Z,33.50
2018-10-18T09:59:48.675Z,36.50
2018-10-18T10:02:23.319Z,35.70
2018-10-18T10:04:52.211Z,35.33
2018-10-18T10:07:21.106Z,33.37
2018-10-18T10:09:49.979Z,34.60
2018-10-18T10:12:18.991Z,37.03
2018-10-18T10:14:47.954Z,34.90
2018-10-18T10:17:16.982Z,37.30
2018-10-18T10:19:45.807Z,35.90
2018-10-18T10:22:14.770Z,36.97
2018-10-18T10:24:43.805Z,36.73
2018-10-18T10:27:12.602Z,36.63
2018-10-18T10:29:41.483Z,37.20
2018-10-18T10:32:10.463Z,35.40
2018-10-18T10:34:39.338Z,36.13
2018-10-18T10:37:08.334Z,38.00
2018-10-18T10:39:37.138Z,38.13
2018-10-18T10:42:06.988Z,36.47
2018-10-18T10:44:35.891Z,36.80
2018-10-18T10:47:05.491Z,38.77
2018-10-18T10:49:34.354Z,39.70
2018-10-18T10:52:03.373Z,41.20
2018-10-18T10:54:32.253Z,38.70
2018-10-18T10:57:01.136Z,38.40
2018-10-18T10:59:30.012Z,38.50
2018-10-18T11:01:59.015Z,37.77
2018-10-18T11:04:27.874Z,37.50
2018-10-18T11:06:56.754Z,39.63
2018-10-18T11:09:25.772Z,39.20
2018-10-18T11:11:54.731Z,37.00
2018-10-18T11:14:23.537Z,39.33
2018-10-18T11:16:52.407Z,39.07
2018-10-18T11:19:21.322Z,39.20
2018-10-18T11:21:50.221Z,36.80
2018-10-18T11:24:19.245Z,39.50
2018-10-18T11:26:48.094Z,38.63
2018-10-18T11:29:16.962Z,36.97
2018-10-18T11:31:45.862Z,38.40
2018-10-18T11:34:14.772Z,40.37
2018-10-18T11:36:43.643Z,38.20
2018-10-18T11:39:12.515Z,38.43
2018-10-18T11:41:41.405Z,33.80
2018-10-18T11:44:10.411Z,36.67
2018-10-18T11:46:39.211Z,35.17
2018-10-18T11:49:08.099Z,37.27
2018-10-18T11:51:37.071Z,35.00
2018-10-18T11:54:06.080Z,36.83
2018-10-18T11:56:34.949Z,37.50
2018-10-18T11:59:07.335Z,38.77
2018-10-18T12:01:36.999Z,35.73
2018-10-18T12:04:05.962Z,36.40
2018-10-18T12:06:34.855Z,35.40
2018-10-18T12:09:06.163Z,35.10
2018-10-18T12:11:35.028Z,36.03
2018-10-18T12:14:04.702Z,37.90
2018-10-18T12:16:33.578Z,34.03
2018-10-18T12:19:02.612Z,35.87
2018-10-18T12:21:31.533Z,35.47
2018-10-18T12:24:00.459Z,34.97
2018-10-18T12:26:29.335Z,35.73
2018-10-18T12:28:58.258Z,35.73
2018-10-18T12:31:27.208Z,34.60
2018-10-18T12:33:56.116Z,34.83
2018-10-18T12:36:25.003Z,37.20
2018-10-18T12:38:53.894Z,35.63
2018-10-18T12:41:23.076Z,38.23
2018-10-18T12:43:51.781Z,35.10
2018-10-18T12:46:20.683Z,35.77
2018-10-18T12:48:49.543Z,36.50
2018-10-18T12:51:18.431Z,34.87
2018-10-18T12:53:47.346Z,36.33
2018-10-18T12:56:16.349Z,34.10
2018-10-18T12:58:45.300Z,36.20
2018-10-18T13:01:14.191Z,34.70
2018-10-18T13:03:43.147Z,33.50
2018-10-18T13:06:12.117Z,37.10
2018-10-18T13:08:41.703Z,36.27
2018-10-18T13:11:10.583Z,37.93
2018-10-18T13:13:39.476Z,38.30
2018-10-18T13:16:08.566Z,37.93
2018-10-18T13:18:37.440Z,34.90
2018-10-18T13:21:06.291Z,36.33
2018-10-18T13:23:35.291Z,35.33
2018-10-18T13:26:04.536Z,34.30
2018-10-18T13:28:33.432Z,38.10
2018-10-18T13:31:02.302Z,34.83
2018-10-18T13:33:31.279Z,36.70
2018-10-18T13:36:00.434Z,37.23
2018-10-18T13:38:29.347Z,34.67
2018-10-18T13:40:58.260Z,36.47
2018-10-18T13:43:27.398Z,35.40
2018-10-18T13:45:56.278Z,38.10
2018-10-18T13:48:25.156Z,37.20
2018-10-18T13:50:54.071Z,36.33
2018-10-18T13:53:23.579Z,37.60
2018-10-18T13:55:52.598Z,36.43
2018-10-18T13:58:21.480Z,38.00
2018-10-18T14:00:50.752Z,36.33
2018-10-18T14:03:19.871Z,37.17
2018-10-18T14:05:48.896Z,35.83
2018-10-18T14:08:17.765Z,36.33
2018-10-18T14:10:46.627Z,37.87
2018-10-18T14:13:15.663Z,37.53
2018-10-18T14:15:44.555Z,36.53
2018-10-18T14:18:13.472Z,38.77
2018-10-18T14:20:42.385Z,34.10
2018-10-18T14:23:11.447Z,37.53
2018-10-18T14:25:40.350Z,37.97
2018-10-18T14:28:09.267Z,35.13
2018-10-18T14:30:38.237Z,36.03
2018-10-18T14:33:07.197Z,36.50
2018-10-18T14:35:36.094Z,33.87
2018-10-18T14:38:05.174Z,39.13
2018-10-18T14:40:34.043Z,37.53
2018-10-18T14:43:03.001Z,37.40
2018-10-18T14:45:31.895Z,35.93
2018-10-18T14:48:00.816Z,34.47
2018-10-18T14:50:29.807Z,36.10
2018-10-18T14:52:58.727Z,33.63
2018-10-18T14:55:27.628Z,34.23
2018-10-18T14:57:56.668Z,36.33
2018-10-18T15:00:31.410Z,34.77
2018-10-18T15:03:00.452Z,37.07
2018-10-18T15:05:29.335Z,35.20
2018-10-18T15:07:58.287Z,35.70
2018-10-18T15:10:27.159Z,35.13
2018-10-18T15:12:56.078Z,35.43
2018-10-18T15:15:24.984Z,35.30
2018-10-18T15:17:53.922Z,35.90
2018-10-18T15:20:22.856Z,36.47
2018-10-18T15:22:55.194Z,32.40
2018-10-18T15:25:24.292Z,35.33
2018-10-18T15:27:53.191Z,35.30
2018-10-18T15:30:21.986Z,32.47
2018-10-18T15:32:50.891Z,34.90
2018-10-18T15:35:19.769Z,30.93
2018-10-18T15:37:48.694Z,34.07
2018-10-18T15:40:17.603Z,34.50
2018-10-18T15:42:46.539Z,33.50
2018-10-18T15:45:15.603Z,34.83
2018-10-18T15:47:44.444Z,34.67
2018-10-18T15:50:13.312Z,32.90
2018-10-18T15:52:42.382Z,34.00
2018-10-18T15:55:11.488Z,32.43
2018-10-18T15:57:40.367Z,34.60
2018-10-18T16:00:12.267Z,34.03
2018-10-18T16:02:42.262Z,35.90
2018-10-18T16:05:11.542Z,36.10
2018-10-18T16:07:40.388Z,39.00
2018-10-18T16:10:09.751Z,39.30
2018-10-18T16:12:39.063Z,40.40
2018-10-18T16:15:09.477Z,46.23
2018-10-18T16:17:38.392Z,45.37
2018-10-18T16:20:08.902Z,47.20
2018-10-18T16:22:38.518Z,47.93
2018-10-18T16:25:08.823Z,47.80
2018-10-18T16:27:37.771Z,47.43
2018-10-18T16:30:06.826Z,47.50
2018-10-18T16:32:36.122Z,48.83
2018-10-18T16:35:05.286Z,47.10
2018-10-18T16:37:34.126Z,47.23
2018-10-18T16:40:03.102Z,49.43
2018-10-18T16:42:32.015Z,48.30
2018-10-18T16:45:01.002Z,44.40
2018-10-18T16:47:29.876Z,42.33
2018-10-18T16:49:58.824Z,46.60
2018-10-18T16:52:27.683Z,43.20
2018-10-18T16:54:56.558Z,42.07
2018-10-18T16:57:25.439Z,41.77
2018-10-18T16:59:54.337Z,44.70
2018-10-18T17:02:23.852Z,46.20
2018-10-18T17:04:52.743Z,43.83
2018-10-18T17:07:21.706Z,44.27
2018-10-18T17:09:50.567Z,41.40
2018-10-18T17:12:19.661Z,42.20
2018-10-18T17:14:48.419Z,43.50
2018-10-18T17:17:17.307Z,45.20
2018-10-18T17:19:46.194Z,41.50
2018-10-18T17:22:15.250Z,42.80
2018-10-18T17:24:44.284Z,45.27
2018-10-18T17:27:13.273Z,44.73
2018-10-18T17:29:42.120Z,42.50
2018-10-18T17:32:12.235Z,44.30
2018-10-18T17:34:41.053Z,44.60
2018-10-18T17:37:10.063Z,43.17
2018-10-18T17:39:38.938Z,43.33
2018-10-18T17:42:07.945Z,43.97
2018-10-18T17:44:36.756Z,43.60
2018-10-18T17:47:05.751Z,43.53
2018-10-18T17:49:34.618Z,41.10
2018-10-18T17:52:03.646Z,45.20
2018-10-18T17:54:32.540Z,40.80
2018-10-18T17:57:01.451Z,41.10
2018-10-18T17:59:30.426Z,43.70
2018-10-18T18:01:59.459Z,44.20
2018-10-18T18:04:28.403Z,44.47
2018-10-18T18:06:57.362Z,45.63
2018-10-18T18:09:26.367Z,45.27
2018-10-18T18:11:55.239Z,44.27
2018-10-18T18:14:24.129Z,43.77
2018-10-18T18:16:53.077Z,45.87
2018-10-18T18:19:22.464Z,45.30
2018-10-18T18:21:51.431Z,47.67
2018-10-18T18:24:20.390Z,46.37
2018-10-18T18:26:49.721Z,46.93
2018-10-18T18:29:18.661Z,45.60
2018-10-18T18:31:47.538Z,46.87
2018-10-18T18:34:16.407Z,44.00
2018-10-18T18:36:45.282Z,46.53
2018-10-18T18:39:14.139Z,44.83
2018-10-18T18:41:43.027Z,47.07
2018-10-18T18:44:11.904Z,45.93
2018-10-18T18:46:40.771Z,45.93
2018-10-18T18:49:09.787Z,43.23
2018-10-18T18:51:39.086Z,44.20
2018-10-18T18:54:08.067Z,43.07
2018-10-18T18:56:36.988Z,43.00
2018-10-18T18:59:09.958Z,46.37
2018-10-18T19:01:42.504Z,45.40
2018-10-18T19:04:12.477Z,46.03
2018-10-18T19:06:43.132Z,46.03
2018-10-18T19:09:12.866Z,43.27
2018-10-18T19:11:42.016Z,44.13
2018-10-18T19:14:11.279Z,43.03
2018-10-18T19:16:40.375Z,42.77
2018-10-18T19:19:09.463Z,41.90
2018-10-18T19:21:38.392Z,47.93
2018-10-18T19:24:07.280Z,43.23
2018-10-18T19:26:36.239Z,44.20
2018-10-18T19:29:05.160Z,46.37
2018-10-18T19:31:34.079Z,45.30
2018-10-18T19:34:03.175Z,43.00
2018-10-18T19:36:32.113Z,44.20
2018-10-18T19:39:02.066Z,43.50
2018-10-18T19:41:30.940Z,43.83
2018-10-18T19:43:59.914Z,43.63
2018-10-18T19:46:29.209Z,41.80
2018-10-18T19:48:58.899Z,40.37
2018-10-18T19:51:27.882Z,41.60
2018-10-18T19:53:56.907Z,43.10
2018-10-18T19:56:26.647Z,40.67
2018-10-18T19:58:56.483Z,42.10
2018-10-18T20:01:25.358Z,42.10
2018-10-18T20:03:54.325Z,40.80
2018-10-18T20:06:23.770Z,37.93
2018-10-18T20:08:52.602Z,43.47
2018-10-18T20:11:21.581Z,38.10
2018-10-18T20:13:50.914Z,41.10
2018-10-18T20:16:20.601Z,42.57
2018-10-18T20:18:49.488Z,41.83
2018-10-18T20:21:18.368Z,42.67
2018-10-18T20:23:47.339Z,43.13
2018-10-18T20:26:16.342Z,43.60
2018-10-18T20:28:45.036Z,43.77
2018-10-18T20:31:13.879Z,41.00
2018-10-18T20:33:42.747Z,42.80
2018-10-18T20:36:11.639Z,40.20
2018-10-18T20:38:40.499Z,38.40
2018-10-18T20:41:09.446Z,41.80
2018-10-18T20:43:38.329Z,39.20
2018-10-18T20:46:07.185Z,41.10
2018-10-18T20:48:36.063Z,38.97
2018-10-18T20:51:05.248Z,40.13
2018-10-18T20:53:34.198Z,41.33
2018-10-18T20:56:03.396Z,38.37
2018-10-18T20:58:32.440Z,39.77
2018-10-18T21:01:01.973Z,38.00
2018-10-18T21:03:30.861Z,36.43
2018-10-18T21:05:59.752Z,37.20
2018-10-18T21:08:28.560Z,35.20
2018-10-18T21:10:57.414Z,36.30
2018-10-18T21:13:26.326Z,39.17
2018-10-18T21:15:55.251Z,38.20
2018-10-18T21:18:24.090Z,37.40
2018-10-18T21:20:52.993Z,36.23
2018-10-18T21:23:21.895Z,35.27
2018-10-18T21:25:50.710Z,37.23
2018-10-18T21:28:19.547Z,38.37
2018-10-18T21:30:48.423Z,35.00
2018-10-18T21:33:17.353Z,37.67
2018-10-18T21:35:46.167Z,35.00
2018-10-18T21:38:15.019Z,36.30
2018-10-18T21:40:43.867Z,35.63
2018-10-18T21:43:12.830Z,34.10
2018-10-18T21:45:41.675Z,35.63
2018-10-18T21:48:10.547Z,33.83
2018-10-18T21:50:39.403Z,37.40
2018-10-18T21:53:08.350Z,35.90
2018-10-18T21:55:37.126Z,34.67
2018-10-18T21:58:06.034Z,35.77
2018-10-18T22:00:40.557Z,34.50
2018-10-18T22:03:09.584Z,33.80
2018-10-18T22:05:38.299Z,33.93
2018-10-18T22:08:07.179Z,35.03
2018-10-18T22:10:36.022Z,35.20
2018-10-18T22:13:05.015Z,32.97
2018-10-18T22:15:33.978Z,34.10
2018-10-18T22:18:02.932Z,36.10
2018-10-18T22:20:31.794Z,36.07
2018-10-18T22:23:00.742Z,35.70
2018-10-18T22:25:29.648Z,35.17
2018-10-18T22:27:58.536Z,33.60
2018-10-18T22:30:27.416Z,32.83
2018-10-18T22:32:56.268Z,34.10
2018-10-18T22:35:25.124Z,33.60
2018-10-18T22:37:53.953Z,34.53
2018-10-18T22:40:22.940Z,34.80
2018-10-18T22:42:51.915Z,36.37
2018-10-18T22:45:20.751Z,34.07
2018-10-18T22:47:49.605Z,35.30
2018-10-18T22:50:18.434Z,37.50
2018-10-18T22:52:47.401Z,36.73
2018-10-18T22:55:16.219Z,34.47
2018-10-18T22:57:45.063Z,38.10
2018-10-18T23:00:15.305Z,36.30
2018-10-18T23:02:44.203Z,38.13
2018-10-18T23:05:13.118Z,34.47
2018-10-18T23:07:41.879Z,37.43
2018-10-18T23:10:10.711Z,37.97
2018-10-18T23:12:39.627Z,35.37
2018-10-18T23:15:09.786Z,35.70
2018-10-18T23:17:38.889Z,37.10
2018-10-18T23:20:08.607Z,37.30
2018-10-18T23:22:37.462Z,38.47
2018-10-18T23:25:06.675Z,38.37
2018-10-18T23:27:35.535Z,37.73
2018-10-18T23:30:05.909Z,38.50
2018-10-18T23:32:34.971Z,39.93
2018-10-18T23:35:04.197Z,37.97
2018-10-18T23:37:33.040Z,35.93
2018-10-18T23:40:01.963Z,36.33
2018-10-18T23:42:30.851Z,36.73
2018-10-18T23:44:59.906Z,36.23
2018-10-18T23:47:28.774Z,34.70
2018-10-18T23:50:04.718Z,37.53
2018-10-18T23:52:33.826Z,35.53
2018-10-18T23:55:02.861Z,36.77
2018-10-18T23:57:31.670Z,36.33
